Terminal Aerodrome Forecast
Issued by NWS

Home | Current Version | Previous Version | Text Only | Print | Product List | Glossary Off
Versions: 1 2 3 4 5 6 7 8 9 10 11 12 13 14 15 16 17

000
FTUS43 KTOP 192100 AAA
TAFMHK
TAF AMD
KMHK 192100Z 1921/2018 18011KT P6SM BKN015
      TEMPO 1921/1923 SCT020
     FM192300 18010KT P6SM SCT019
     FM200100 17010KT P6SM BKN015
     FM200700 19010KT 4SM -SHRA BR OVC011
     FM201100 18009KT 4SM BR OVC007
     FM201400 20008KT P6SM OVC015=

USA.gov is the U.S. government's official web portal to all federal, state and local government web resources and services.